Time;durP1;ratioP1;P1;durP2;ratioP2;P2;SDS_P1;SDS_P2;PMS_P1;PMS_P2;Temp;Humidity;BMP_temperature;BMP_pressure;BME280_temperature;BME280_humidity;BME280_pressure;Samples;Min_cycle;Max_cycle;Signal;HPM_P1;HPM_P2
2023/02/26 00:00:07;;;;;;;1.50;1.40;;;1.80;99.90;;;;;;5000858;28;20488;-71
2023/02/26 00:02:35;;;;;;;3.73;1.50;;;1.80;99.90;;;;;;5000910;28;20424;-71
2023/02/26 00:05:02;;;;;;;1.00;0.80;;;1.70;99.90;;;;;;4996968;28;20466;-70
2023/02/26 00:07:30;;;;;;;1.40;1.30;;;1.80;99.90;;;;;;5000806;28;20464;-71
2023/02/26 00:09:57;;;;;;;1.20;1.10;;;1.70;99.90;;;;;;5002566;28;20518;-71
2023/02/26 00:12:25;;;;;;;1.23;1.00;;;1.70;99.90;;;;;;5005297;28;20498;-70
2023/02/26 00:14:52;;;;;;;2.50;0.93;;;1.60;99.90;;;;;;5001754;28;20436;-71
2023/02/26 00:17:33;;;;;;;2.73;1.73;;;1.60;99.90;;;;;;5004076;28;20712;-71
2023/02/26 00:20:01;;;;;;;4.20;1.10;;;1.60;99.90;;;;;;5006227;28;20448;-71
2023/02/26 00:22:32;;;;;;;2.37;1.40;;;1.50;99.90;;;;;;5004972;28;20548;-70
2023/02/26 00:24:59;;;;;;;2.30;1.60;;;1.50;99.90;;;;;;5017967;28;20481;-69
2023/02/26 00:27:26;;;;;;;1.70;1.60;;;1.50;99.90;;;;;;5014482;28;20508;-70
2023/02/26 00:29:54;;;;;;;3.53;1.50;;;1.60;99.90;;;;;;5005238;28;20526;-70
2023/02/26 00:32:21;;;;;;;1.07;0.80;;;1.60;99.90;;;;;;5025546;28;20427;-70
2023/02/26 00:34:49;;;;;;;2.10;1.10;;;1.60;99.90;;;;;;5006234;28;21044;-70
2023/02/26 00:37:28;;;;;;;1.40;1.20;;;1.60;99.90;;;;;;5004335;28;20500;-71
2023/02/26 00:40:08;;;;;;;1.73;1.03;;;1.60;99.90;;;;;;5001581;28;20442;-70
2023/02/26 00:42:35;;;;;;;6.87;1.87;;;1.60;99.90;;;;;;4998163;28;20928;-70
2023/02/26 00:45:04;;;;;;;0.90;0.70;;;1.70;99.90;;;;;;5006207;28;20465;-70
2023/02/26 00:47:36;;;;;;;2.60;1.47;;;1.70;99.90;;;;;;5001535;28;21000;-71
2023/02/26 00:50:13;;;;;;;1.40;1.10;;;1.70;99.90;;;;;;4999184;28;20457;-70
2023/02/26 00:52:48;;;;;;;1.13;1.03;;;1.70;99.90;;;;;;5015921;28;20444;-70
2023/02/26 00:55:17;;;;;;;1.00;0.80;;;1.70;99.90;;;;;;5009423;28;20450;-71
2023/02/26 00:57:43;;;;;;;1.00;0.80;;;1.80;99.90;;;;;;5006585;28;20927;-70
2023/02/26 01:00:12;;;;;;;1.77;1.07;;;1.80;99.90;;;;;;5004035;28;20471;-71
2023/02/26 01:02:40;;;;;;;1.20;1.10;;;1.80;99.90;;;;;;5003009;28;20464;-71
2023/02/26 01:05:09;;;;;;;11.30;1.33;;;1.80;99.90;;;;;;5003444;28;20432;-71
2023/02/26 01:07:44;;;;;;;1.10;0.80;;;1.80;99.90;;;;;;5003672;28;21030;-71
2023/02/26 01:10:12;;;;;;;1.50;1.27;;;1.80;99.90;;;;;;5002794;28;20441;-71
2023/02/26 01:12:42;;;;;;;2.53;0.90;;;1.80;99.90;;;;;;4986203;28;20784;-70
2023/02/26 01:15:10;;;;;;;1.97;1.00;;;1.70;99.90;;;;;;5008259;28;20524;-71
2023/02/26 01:17:44;;;;;;;2.67;1.00;;;1.60;99.90;;;;;;4998889;28;20486;-70
2023/02/26 01:20:16;;;;;;;1.27;1.10;;;1.50;99.90;;;;;;5002537;28;20523;-70
2023/02/26 01:22:49;;;;;;;1.27;1.03;;;1.60;99.90;;;;;;5002615;28;20425;-71
2023/02/26 01:25:21;;;;;;;0.90;0.80;;;1.70;99.90;;;;;;4999619;28;20459;-71
2023/02/26 01:27:50;;;;;;;1.40;0.90;;;1.60;99.90;;;;;;5006767;28;20669;-71
2023/02/26 01:30:18;;;;;;;1.10;1.00;;;1.60;99.90;;;;;;5002432;28;20524;-71
2023/02/26 01:32:52;;;;;;;2.30;1.83;;;1.40;99.90;;;;;;5003544;28;20585;-71
2023/02/26 01:35:31;;;;;;;1.30;1.20;;;1.40;99.90;;;;;;5018601;28;20462;-70
2023/02/26 01:38:02;;;;;;;1.00;0.90;;;1.40;99.90;;;;;;5008031;28;20983;-71
2023/02/26 01:41:04;;;;;;;6.90;1.43;;;1.20;99.90;;;;;;5004770;28;20556;-71
2023/02/26 01:43:38;;;;;;;0.90;0.70;;;1.50;99.90;;;;;;5006550;28;20540;-71
2023/02/26 01:46:13;;;;;;;1.00;0.90;;;1.40;99.90;;;;;;5000031;28;20834;-71
2023/02/26 01:48:49;;;;;;;1.10;1.00;;;1.40;99.90;;;;;;4999395;28;20523;-71
2023/02/26 01:51:16;;;;;;;1.10;1.00;;;1.40;99.90;;;;;;5002463;28;20496;-71
2023/02/26 01:53:43;;;;;;;0.90;0.70;;;1.40;99.90;;;;;;5000794;28;20439;-71
2023/02/26 01:56:13;;;;;;;1.00;0.80;;;1.40;99.90;;;;;;5001227;28;20587;-71
2023/02/26 01:58:44;;;;;;;1.00;0.87;;;1.40;99.90;;;;;;4998234;28;20538;-70
2023/02/26 02:01:11;;;;;;;1.20;1.10;;;1.30;99.90;;;;;;5009420;28;20830;-70
2023/02/26 02:03:40;;;;;;;1.97;0.87;;;1.30;99.90;;;;;;4999742;28;20538;-71
2023/02/26 02:06:10;;;;;;;1.23;1.13;;;1.30;99.90;;;;;;5008238;28;20464;-71
2023/02/26 02:08:38;;;;;;;0.90;0.80;;;1.30;99.90;;;;;;5004764;28;20551;-71
2023/02/26 02:11:10;;;;;;;1.00;0.70;;;1.40;99.90;;;;;;5002333;28;20466;-70
2023/02/26 02:13:59;;;;;;;2.03;0.90;;;1.20;99.90;;;;;;5005219;28;20431;-71
2023/02/26 02:16:33;;;;;;;1.10;1.00;;;1.30;99.90;;;;;;5002748;28;20838;-70
2023/02/26 02:19:12;;;;;;;2.00;1.20;;;1.30;99.90;;;;;;5003825;28;20634;-70
2023/02/26 02:21:51;;;;;;;1.83;0.80;;;1.40;99.90;;;;;;5001647;28;20452;-71
2023/02/26 02:24:27;;;;;;;1.43;1.27;;;1.50;99.90;;;;;;5000195;28;20464;-70
2023/02/26 02:27:01;;;;;;;1.83;1.33;;;1.50;99.90;;;;;;4999672;28;20539;-71
2023/02/26 02:29:59;;;;;;;1.30;0.90;;;1.40;99.90;;;;;;5004255;28;20495;-71
2023/02/26 02:32:31;;;;;;;2.13;0.90;;;1.20;99.90;;;;;;5006524;28;20553;-70
2023/02/26 02:35:03;;;;;;;1.00;0.77;;;1.20;99.90;;;;;;5013358;28;20475;-70
2023/02/26 02:37:36;;;;;;;2.90;0.97;;;1.30;99.90;;;;;;5001842;28;20454;-70
2023/02/26 02:40:10;;;;;;;1.00;0.80;;;1.20;99.90;;;;;;4997797;28;20446;-71
2023/02/26 02:42:42;;;;;;;0.93;0.80;;;1.20;99.90;;;;;;4996438;28;20520;-71
2023/02/26 02:45:13;;;;;;;1.60;1.20;;;1.20;99.90;;;;;;5003049;28;20445;-71
2023/02/26 02:47:44;;;;;;;1.10;0.93;;;1.00;99.90;;;;;;5001325;28;20794;-71
2023/02/26 02:50:17;;;;;;;1.20;1.00;;;1.00;99.90;;;;;;5001839;28;20965;-70
2023/02/26 02:52:48;;;;;;;1.00;0.80;;;1.00;99.90;;;;;;4999654;28;20457;-71
2023/02/26 02:55:20;;;;;;;0.90;0.70;;;1.00;99.90;;;;;;5000359;28;20549;-71
2023/02/26 02:57:52;;;;;;;3.53;0.97;;;0.90;99.90;;;;;;5000642;28;20488;-70
2023/02/26 03:00:22;;;;;;;0.93;0.80;;;0.80;99.90;;;;;;5004970;28;20893;-71
2023/02/26 03:02:57;;;;;;;1.00;0.80;;;0.90;99.90;;;;;;5004200;28;20518;-70
2023/02/26 03:05:24;;;;;;;0.90;0.70;;;1.00;99.90;;;;;;4996746;28;20442;-71
2023/02/26 03:07:56;;;;;;;1.00;0.80;;;1.00;99.90;;;;;;5012719;28;20621;-70
2023/02/26 03:10:23;;;;;;;1.67;1.07;;;1.00;99.90;;;;;;5006117;28;20533;-71
2023/02/26 03:12:50;;;;;;;1.10;0.97;;;1.00;99.90;;;;;;4999572;28;20443;-70
2023/02/26 03:15:27;;;;;;;1.53;1.43;;;1.00;99.90;;;;;;5000603;28;20551;-72
2023/02/26 03:18:06;;;;;;;1.00;0.90;;;0.80;99.90;;;;;;4999117;28;20537;-69
2023/02/26 03:20:38;;;;;;;4.10;1.43;;;0.90;99.90;;;;;;4997253;28;20518;-70
2023/02/26 03:23:11;;;;;;;1.00;0.80;;;0.90;99.90;;;;;;5005186;28;20443;-70
2023/02/26 03:25:45;;;;;;;7.83;1.70;;;0.80;99.90;;;;;;5001857;28;20429;-70
2023/02/26 03:28:24;;;;;;;1.10;0.90;;;0.70;99.90;;;;;;5001426;28;20509;-70
2023/02/26 03:30:58;;;;;;;1.00;0.80;;;0.80;99.90;;;;;;4999940;28;20944;-70
2023/02/26 03:33:33;;;;;;;4.40;1.57;;;0.80;99.90;;;;;;4997976;28;20553;-69
2023/02/26 03:36:07;;;;;;;1.30;1.10;;;0.70;99.90;;;;;;5000005;28;20453;-69
2023/02/26 03:38:42;;;;;;;1.00;0.83;;;0.60;99.90;;;;;;5004360;28;20459;-70
2023/02/26 03:41:11;;;;;;;1.97;0.87;;;0.70;99.90;;;;;;5002282;28;20853;-70
2023/02/26 03:43:42;;;;;;;1.00;0.90;;;0.70;99.90;;;;;;5011412;28;20470;-70
2023/02/26 03:46:13;;;;;;;1.00;0.80;;;0.70;99.90;;;;;;5008248;28;20480;-70
2023/02/26 03:48:44;;;;;;;1.50;1.10;;;0.70;99.90;;;;;;5002338;28;20443;-69
2023/02/26 03:51:13;;;;;;;1.00;0.80;;;0.70;99.90;;;;;;5008413;28;21011;-70
2023/02/26 03:53:47;;;;;;;1.33;1.07;;;0.40;99.90;;;;;;5000714;28;20484;-70
2023/02/26 03:56:18;;;;;;;1.40;1.20;;;0.50;99.90;;;;;;5002664;28;20483;-70
2023/02/26 03:58:45;;;;;;;1.10;1.00;;;0.60;99.90;;;;;;4958125;28;20536;-70
2023/02/26 04:01:17;;;;;;;1.00;0.80;;;0.40;99.90;;;;;;5003656;28;21007;-70
2023/02/26 04:03:50;;;;;;;0.90;0.70;;;0.50;99.90;;;;;;5003251;28;20435;-69
2023/02/26 04:06:19;;;;;;;0.90;0.70;;;0.50;99.90;;;;;;5004874;28;20571;-71
2023/02/26 04:08:46;;;;;;;0.90;0.70;;;0.50;99.90;;;;;;5000279;28;20453;-69
2023/02/26 04:11:17;;;;;;;1.00;0.80;;;0.40;99.90;;;;;;4998855;28;20465;-70
2023/02/26 04:13:44;;;;;;;0.90;0.70;;;0.30;99.90;;;;;;5003125;28;20516;-69
2023/02/26 04:16:12;;;;;;;4.27;1.80;;;0.40;99.90;;;;;;5003644;28;20993;-70
2023/02/26 04:18:39;;;;;;;1.00;0.87;;;0.40;99.90;;;;;;5001924;28;21123;-72
2023/02/26 04:21:10;;;;;;;0.90;0.70;;;0.50;99.90;;;;;;5004833;28;20473;-70
2023/02/26 04:23:37;;;;;;;1.10;1.00;;;0.50;99.90;;;;;;5008801;28;20595;-70
2023/02/26 04:26:04;;;;;;;1.10;0.90;;;0.40;99.90;;;;;;5009176;28;20508;-70
2023/02/26 04:28:32;;;;;;;2.93;1.60;;;0.30;99.90;;;;;;5010059;28;20459;-70
2023/02/26 04:30:59;;;;;;;1.00;0.80;;;0.30;99.90;;;;;;5005140;28;20476;-70
2023/02/26 04:33:26;;;;;;;1.37;1.10;;;0.30;99.90;;;;;;5006214;28;20471;-70
2023/02/26 04:35:53;;;;;;;1.50;0.93;;;0.20;99.90;;;;;;5005331;28;20441;-69
2023/02/26 04:38:22;;;;;;;1.10;1.00;;;0.20;99.90;;;;;;5009797;28;20481;-70
2023/02/26 04:40:49;;;;;;;0.90;0.70;;;0.20;99.90;;;;;;5003146;28;20492;-70
2023/02/26 04:43:16;;;;;;;0.90;0.70;;;0.20;99.90;;;;;;5006245;28;20992;-71
2023/02/26 04:45:45;;;;;;;2.27;0.80;;;0.20;99.90;;;;;;5003460;28;20465;-71
2023/02/26 04:48:12;;;;;;;1.00;0.90;;;0.20;99.90;;;;;;5006603;28;20501;-70
2023/02/26 04:50:39;;;;;;;3.40;1.17;;;0.30;99.90;;;;;;4995938;28;20956;-70
2023/02/26 04:53:06;;;;;;;1.67;0.80;;;0.30;99.90;;;;;;4997315;28;20487;-71
2023/02/26 04:55:36;;;;;;;1.20;0.80;;;0.30;99.90;;;;;;4988084;28;21394;-70
2023/02/26 04:58:03;;;;;;;1.00;0.80;;;0.30;99.90;;;;;;4999563;28;20486;-70
2023/02/26 05:00:30;;;;;;;1.00;0.90;;;0.10;99.90;;;;;;5003187;28;20902;-69
2023/02/26 05:02:57;;;;;;;4.87;1.83;;;0.00;99.90;;;;;;5000789;28;20483;-70
2023/02/26 05:05:24;;;;;;;0.90;0.70;;;0.00;99.90;;;;;;5001759;28;20449;-70
2023/02/26 05:07:54;;;;;;;2.00;1.37;;;-0.10;99.90;;;;;;5005863;28;20847;-70
2023/02/26 05:10:21;;;;;;;1.77;1.67;;;-0.10;99.90;;;;;;4998887;28;20462;-71
2023/02/26 05:12:49;;;;;;;1.30;1.03;;;0.00;99.90;;;;;;5002346;28;20469;-71
2023/02/26 05:15:16;;;;;;;0.97;0.80;;;-0.10;99.90;;;;;;5006819;28;20468;-71
2023/02/26 05:17:43;;;;;;;1.10;1.00;;;-0.10;99.90;;;;;;5002744;28;20478;-70
2023/02/26 05:20:14;;;;;;;2.40;0.90;;;-0.10;99.90;;;;;;5004224;28;20549;-70
2023/02/26 05:22:41;;;;;;;1.37;1.27;;;-0.10;99.90;;;;;;5011036;28;20424;-69
2023/02/26 05:25:09;;;;;;;1.60;1.17;;;0.10;99.90;;;;;;5015074;28;20533;-69
2023/02/26 05:27:36;;;;;;;1.00;0.90;;;0.10;99.90;;;;;;5018106;28;20487;-70
2023/02/26 05:30:05;;;;;;;1.60;1.07;;;0.10;99.90;;;;;;5019789;28;20908;-69
2023/02/26 05:32:35;;;;;;;8.33;0.97;;;0.00;99.90;;;;;;5004624;28;20820;-70
2023/02/26 05:35:02;;;;;;;2.13;1.00;;;-0.10;99.90;;;;;;5005036;28;21012;-70
2023/02/26 05:37:31;;;;;;;1.13;1.03;;;-0.10;99.90;;;;;;5003196;28;20449;-70
2023/02/26 05:39:58;;;;;;;1.10;1.00;;;-0.20;99.90;;;;;;5004943;28;20895;-70
2023/02/26 05:42:25;;;;;;;1.10;1.00;;;-0.40;99.90;;;;;;5004190;28;20511;-70
2023/02/26 05:44:52;;;;;;;1.53;0.87;;;-0.40;99.90;;;;;;5008084;28;20461;-69
2023/02/26 05:47:23;;;;;;;1.00;0.80;;;-0.40;99.90;;;;;;5007403;28;20525;-69
2023/02/26 05:49:50;;;;;;;0.90;0.70;;;-0.30;99.90;;;;;;5005177;28;20477;-69
2023/02/26 05:52:17;;;;;;;1.23;1.13;;;-0.30;99.90;;;;;;5004126;28;20457;-70
2023/02/26 05:54:44;;;;;;;1.53;1.43;;;-0.30;99.90;;;;;;4987221;28;20427;-68
2023/02/26 05:57:11;;;;;;;0.90;0.70;;;-0.40;99.90;;;;;;5006561;28;20478;-71
2023/02/26 05:59:38;;;;;;;3.00;1.23;;;-0.40;99.90;;;;;;5006784;28;20521;-70
2023/02/26 06:02:05;;;;;;;1.50;1.00;;;-0.30;99.90;;;;;;5000546;28;20443;-70
2023/02/26 06:04:34;;;;;;;4.80;1.37;;;-0.40;99.90;;;;;;5006076;28;20545;-70
2023/02/26 06:07:01;;;;;;;0.90;0.70;;;-0.30;99.90;;;;;;5003594;28;20556;-71
2023/02/26 06:09:28;;;;;;;1.97;1.60;;;-0.30;99.90;;;;;;5001377;28;20864;-70
2023/02/26 06:11:58;;;;;;;1.40;1.10;;;-0.30;99.90;;;;;;4998999;28;20466;-70
2023/02/26 06:14:25;;;;;;;1.87;1.23;;;-0.40;99.90;;;;;;4999014;28;20457;-71
2023/02/26 06:16:52;;;;;;;1.40;1.00;;;-0.40;99.90;;;;;;5005281;28;20474;-70
2023/02/26 06:19:20;;;;;;;0.90;0.70;;;-0.40;99.90;;;;;;5000846;28;20950;-70
2023/02/26 06:21:48;;;;;;;1.30;1.10;;;-0.40;99.90;;;;;;5002601;28;20425;-70
2023/02/26 06:24:15;;;;;;;0.90;0.80;;;-0.30;99.90;;;;;;5008369;28;20466;-70
2023/02/26 06:26:42;;;;;;;3.37;1.00;;;-0.30;99.90;;;;;;5006478;28;20484;-69
2023/02/26 06:29:09;;;;;;;1.07;0.97;;;-0.40;99.90;;;;;;5012066;28;20590;-69
2023/02/26 06:31:36;;;;;;;1.00;0.80;;;-0.40;99.90;;;;;;5001853;28;20959;-70
2023/02/26 06:34:04;;;;;;;0.90;0.80;;;-0.50;99.90;;;;;;4998500;28;20440;-70
2023/02/26 06:36:30;;;;;;;3.43;1.13;;;-0.30;99.90;;;;;;5003601;28;20451;-70
2023/02/26 06:38:59;;;;;;;1.60;1.47;;;-0.50;99.90;;;;;;5005143;28;20464;-69
2023/02/26 06:41:26;;;;;;;1.40;1.30;;;-0.40;99.90;;;;;;5001391;28;20460;-70
2023/02/26 06:43:52;;;;;;;0.93;0.77;;;-0.40;99.90;;;;;;5000938;28;20440;-70
2023/02/26 06:46:21;;;;;;;2.30;1.10;;;-0.50;99.90;;;;;;5007178;28;20570;-69
2023/02/26 06:48:47;;;;;;;5.77;1.57;;;-0.40;99.90;;;;;;5002565;28;20462;-70
2023/02/26 06:51:14;;;;;;;0.90;0.70;;;-0.50;99.90;;;;;;5001663;28;20813;-69
2023/02/26 06:53:41;;;;;;;1.30;0.90;;;-0.30;99.90;;;;;;4999601;28;20557;-70
2023/02/26 06:56:10;;;;;;;1.83;0.97;;;-0.30;99.90;;;;;;5000556;28;20493;-70
2023/02/26 06:58:37;;;;;;;10.73;1.33;;;-0.30;99.90;;;;;;5009389;28;20469;-70
2023/02/26 07:01:05;;;;;;;1.53;0.87;;;-0.50;99.90;;;;;;5004256;28;20528;-70
2023/02/26 07:03:32;;;;;;;1.10;0.83;;;-0.30;99.90;;;;;;4997082;28;20458;-71
2023/02/26 07:05:59;;;;;;;1.20;0.93;;;-0.30;99.90;;;;;;5007186;28;21025;-70
2023/02/26 07:08:26;;;;;;;1.00;0.90;;;-0.20;99.90;;;;;;5000636;28;20458;-70
2023/02/26 07:10:53;;;;;;;1.00;0.80;;;-0.10;99.90;;;;;;5001846;28;20565;-70
2023/02/26 07:13:21;;;;;;;1.00;0.90;;;-0.10;99.90;;;;;;5002086;28;20442;-70
2023/02/26 07:15:48;;;;;;;1.00;0.90;;;-0.20;99.90;;;;;;5002316;28;20444;-70
2023/02/26 07:18:15;;;;;;;0.90;0.70;;;-0.10;99.90;;;;;;5005025;28;20872;-71
2023/02/26 07:20:42;;;;;;;1.00;0.90;;;-0.10;99.90;;;;;;5000042;28;20557;-70
2023/02/26 07:23:09;;;;;;;1.23;0.90;;;-0.20;99.90;;;;;;4997883;28;20478;-71
2023/02/26 07:25:37;;;;;;;0.90;0.70;;;-0.20;99.90;;;;;;5007924;28;20814;-70
2023/02/26 07:28:05;;;;;;;1.60;1.20;;;-0.10;99.90;;;;;;5000902;28;20462;-70
2023/02/26 07:30:34;;;;;;;1.00;0.80;;;-0.20;99.90;;;;;;4951192;28;20489;-70
2023/02/26 07:33:01;;;;;;;3.50;1.30;;;0.00;99.90;;;;;;5001151;28;20468;-71
2023/02/26 07:35:27;;;;;;;0.90;0.80;;;0.10;99.90;;;;;;5006215;28;20442;-71
2023/02/26 07:37:54;;;;;;;0.90;0.80;;;0.30;99.90;;;;;;5002197;28;20447;-71
2023/02/26 07:40:22;;;;;;;1.57;1.00;;;0.50;99.90;;;;;;5002142;28;20461;-70
2023/02/26 07:42:49;;;;;;;1.60;1.07;;;0.60;99.90;;;;;;5005997;28;20457;-70
2023/02/26 07:45:21;;;;;;;1.50;0.90;;;0.50;99.90;;;;;;5018471;28;20531;-70
2023/02/26 07:47:49;;;;;;;6.70;1.10;;;0.70;99.90;;;;;;4999550;28;20507;-70
2023/02/26 07:50:16;;;;;;;0.90;0.70;;;0.80;99.90;;;;;;5001435;28;20570;-70
2023/02/26 07:52:43;;;;;;;1.00;0.90;;;1.10;99.90;;;;;;5001792;28;20663;-70
2023/02/26 07:55:10;;;;;;;1.33;1.23;;;1.30;99.90;;;;;;4995164;28;20448;-70
2023/02/26 07:57:37;;;;;;;1.10;0.80;;;1.60;99.90;;;;;;5010116;28;20867;-71
2023/02/26 08:00:06;;;;;;;1.37;0.83;;;1.60;99.90;;;;;;5018958;28;20470;-71
2023/02/26 08:02:33;;;;;;;0.90;0.70;;;1.90;99.90;;;;;;4950622;28;20436;-71
2023/02/26 08:05:01;;;;;;;1.03;0.80;;;1.90;99.90;;;;;;5000028;28;20461;-71
2023/02/26 08:07:28;;;;;;;0.90;0.70;;;1.90;99.90;;;;;;4999545;28;20459;-71
2023/02/26 08:09:55;;;;;;;1.10;1.00;;;2.00;99.90;;;;;;5000302;28;20573;-71
2023/02/26 08:12:22;;;;;;;0.90;0.70;;;1.90;99.90;;;;;;4999328;28;20488;-71
2023/02/26 08:14:49;;;;;;;1.00;0.90;;;1.90;99.90;;;;;;5000763;28;20441;-70
2023/02/26 08:17:16;;;;;;;1.00;0.87;;;2.20;99.90;;;;;;5003045;28;20515;-71
2023/02/26 08:19:43;;;;;;;1.00;0.90;;;2.40;99.90;;;;;;4975344;28;20428;-71
2023/02/26 08:22:11;;;;;;;0.90;0.70;;;2.80;99.90;;;;;;5003751;28;20444;-70
2023/02/26 08:24:38;;;;;;;1.50;1.17;;;3.10;99.90;;;;;;5001726;28;20520;-71
2023/02/26 08:27:05;;;;;;;1.20;0.90;;;3.50;99.90;;;;;;4999037;28;21009;-71
2023/02/26 08:29:32;;;;;;;2.60;1.40;;;4.20;99.90;;;;;;5001548;28;20580;-71
2023/02/26 08:31:59;;;;;;;1.33;1.13;;;4.50;99.90;;;;;;5004965;28;20479;-71
2023/02/26 08:34:26;;;;;;;1.00;0.80;;;4.20;99.90;;;;;;5004277;28;20454;-71
2023/02/26 08:36:53;;;;;;;1.00;0.80;;;4.20;99.90;;;;;;5008833;28;20584;-71
2023/02/26 08:39:21;;;;;;;2.40;1.63;;;4.30;99.90;;;;;;5006447;28;20498;-71
2023/02/26 08:41:48;;;;;;;2.07;1.00;;;4.40;99.90;;;;;;5007358;28;20507;-70
2023/02/26 08:44:15;;;;;;;2.60;1.50;;;4.20;99.90;;;;;;5003312;28;21021;-71
2023/02/26 08:46:42;;;;;;;1.10;0.90;;;4.60;99.90;;;;;;5006051;28;20465;-71
2023/02/26 08:49:09;;;;;;;1.63;1.20;;;5.20;99.90;;;;;;5005666;28;20526;-70
2023/02/26 08:51:36;;;;;;;1.07;0.80;;;5.50;99.90;;;;;;5002760;28;20572;-71
2023/02/26 08:54:03;;;;;;;1.50;1.40;;;5.70;99.90;;;;;;5003429;28;20444;-71
2023/02/26 08:56:31;;;;;;;3.63;1.10;;;6.20;99.90;;;;;;5000058;28;20477;-71
2023/02/26 08:58:58;;;;;;;1.30;1.20;;;7.20;99.90;;;;;;5001604;28;20454;-71
2023/02/26 09:01:26;;;;;;;1.27;0.80;;;8.00;99.90;;;;;;5002682;28;20438;-70
2023/02/26 09:03:53;;;;;;;1.20;1.00;;;8.00;99.90;;;;;;5006375;28;20437;-71
2023/02/26 09:06:20;;;;;;;6.93;1.93;;;7.70;99.90;;;;;;5004030;28;20485;-70
2023/02/26 09:08:48;;;;;;;4.50;1.00;;;7.80;99.90;;;;;;5006361;28;20545;-70
2023/02/26 09:11:15;;;;;;;5.43;1.30;;;7.80;99.90;;;;;;5006931;28;20485;-70
2023/02/26 09:13:43;;;;;;;1.77;1.10;;;7.70;99.90;;;;;;5008078;28;20504;-70
2023/02/26 09:16:10;;;;;;;1.73;1.30;;;7.60;99.90;;;;;;5004202;28;20568;-70
2023/02/26 09:18:37;;;;;;;3.17;1.27;;;8.50;99.90;;;;;;5000357;28;20471;-69
2023/02/26 09:21:05;;;;;;;2.70;1.27;;;8.70;99.90;;;;;;5007865;28;20557;-70
2023/02/26 09:23:32;;;;;;;2.10;1.00;;;9.20;99.90;;;;;;5004300;28;20462;-69
2023/02/26 09:25:59;;;;;;;2.07;0.90;;;9.30;99.00;;;;;;5006487;28;20472;-69
2023/02/26 09:28:26;;;;;;;1.97;1.17;;;9.20;97.10;;;;;;5002268;28;20508;-70
2023/02/26 09:30:55;;;;;;;1.70;1.40;;;9.20;96.90;;;;;;5002971;28;20592;-70
2023/02/26 09:33:23;;;;;;;2.13;1.87;;;8.90;96.80;;;;;;4999480;28;20927;-71
2023/02/26 09:35:50;;;;;;;5.63;1.93;;;8.80;97.30;;;;;;5003176;28;20473;-70
2023/02/26 09:38:19;;;;;;;1.80;1.00;;;8.70;96.60;;;;;;5004050;28;20484;-70
2023/02/26 09:40:50;;;;;;;5.33;1.17;;;8.90;97.30;;;;;;5002309;28;20465;-69
2023/02/26 09:43:35;;;;;;;1.40;1.00;;;9.50;96.60;;;;;;5008452;28;20457;-70
2023/02/26 09:46:11;;;;;;;2.00;0.90;;;9.40;95.10;;;;;;5003267;28;20520;-70
2023/02/26 09:48:39;;;;;;;1.83;1.20;;;9.90;93.40;;;;;;5006682;28;20880;-70
2023/02/26 09:51:11;;;;;;;1.40;0.90;;;10.30;91.40;;;;;;4999671;28;20650;-71
2023/02/26 09:53:40;;;;;;;2.83;1.40;;;11.00;90.40;;;;;;4997208;28;20537;-71
2023/02/26 09:56:12;;;;;;;1.83;1.17;;;11.70;89.00;;;;;;4997677;28;20556;-70
2023/02/26 09:58:42;;;;;;;3.63;1.40;;;11.90;86.00;;;;;;5001927;28;20465;-70
2023/02/26 10:01:16;;;;;;;1.50;1.30;;;11.50;83.40;;;;;;5009419;28;20485;-70
2023/02/26 10:03:55;;;;;;;1.13;0.70;;;11.50;85.00;;;;;;5004629;28;20450;-71
2023/02/26 10:06:26;;;;;;;1.40;1.00;;;10.50;83.20;;;;;;5000016;28;20518;-71
2023/02/26 10:09:12;;;;;;;1.77;0.93;;;10.40;82.60;;;;;;5010420;28;20457;-71
2023/02/26 10:11:46;;;;;;;1.23;0.80;;;9.80;83.90;;;;;;5001127;28;20883;-70
2023/02/26 10:14:23;;;;;;;1.37;1.00;;;10.40;83.40;;;;;;4999162;28;20903;-70
2023/02/26 10:16:56;;;;;;;3.40;1.37;;;10.20;82.20;;;;;;5004887;28;21017;-70
2023/02/26 10:19:29;;;;;;;6.93;1.00;;;9.90;82.70;;;;;;4950197;28;20453;-70
2023/02/26 10:22:00;;;;;;;2.70;1.20;;;9.70;83.80;;;;;;5007150;28;20461;-71
2023/02/26 10:24:33;;;;;;;1.80;0.90;;;9.70;83.40;;;;;;5005551;28;20450;-70
2023/02/26 10:27:06;;;;;;;1.00;0.60;;;9.80;82.50;;;;;;5001051;28;20482;-69
2023/02/26 10:29:39;;;;;;;1.73;1.20;;;9.10;79.80;;;;;;5014312;28;20565;-68
2023/02/26 10:32:21;;;;;;;1.20;0.90;;;8.60;84.70;;;;;;5004471;28;20495;-69
2023/02/26 10:34:53;;;;;;;1.53;1.10;;;10.10;84.20;;;;;;5000972;28;20925;-69
2023/02/26 10:37:38;;;;;;;1.63;0.90;;;11.40;80.50;;;;;;4961190;28;20473;-68
2023/02/26 10:40:14;;;;;;;1.37;1.17;;;11.80;75.20;;;;;;5005061;28;20532;-69
2023/02/26 10:42:45;;;;;;;2.90;1.27;;;10.60;73.70;;;;;;5005588;28;20547;-70
2023/02/26 10:45:28;;;;;;;1.10;0.70;;;10.50;74.80;;;;;;5007137;28;20457;-71
2023/02/26 10:48:07;;;;;;;1.53;1.10;;;10.80;72.30;;;;;;5004025;28;20584;-71
2023/02/26 10:50:35;;;;;;;1.10;0.87;;;10.80;73.80;;;;;;5003576;28;20465;-71
2023/02/26 10:53:03;;;;;;;1.30;0.80;;;11.40;72.60;;;;;;5003307;28;20488;-71
2023/02/26 10:55:37;;;;;;;1.20;0.93;;;11.10;68.90;;;;;;5000995;28;20501;-71
2023/02/26 10:58:06;;;;;;;1.37;0.80;;;10.70;70.10;;;;;;4995431;28;20481;-71
2023/02/26 11:00:35;;;;;;;1.20;0.77;;;11.10;70.20;;;;;;4998484;28;20523;-71
2023/02/26 11:03:05;;;;;;;1.00;0.70;;;11.90;70.20;;;;;;4999693;28;20458;-70
2023/02/26 11:05:34;;;;;;;1.40;1.30;;;12.20;68.70;;;;;;4997935;28;21063;-69
2023/02/26 11:08:06;;;;;;;1.10;0.80;;;12.80;67.90;;;;;;4998644;28;20846;-70
2023/02/26 11:10:41;;;;;;;3.20;1.10;;;13.00;65.40;;;;;;4995034;28;20579;-70
2023/02/26 11:13:09;;;;;;;1.20;0.87;;;13.10;63.20;;;;;;5002863;28;20454;-69
2023/02/26 11:15:36;;;;;;;7.10;1.30;;;12.70;63.60;;;;;;5001229;28;20993;-70
2023/02/26 11:18:05;;;;;;;1.87;1.27;;;12.60;64.90;;;;;;5004103;28;20901;-69
2023/02/26 11:20:39;;;;;;;1.30;1.00;;;12.30;63.10;;;;;;5001143;28;20468;-70
2023/02/26 11:23:13;;;;;;;2.10;1.07;;;12.70;62.20;;;;;;5001471;28;20895;-70
2023/02/26 11:25:40;;;;;;;1.87;1.10;;;13.30;59.80;;;;;;4998072;28;20450;-70
2023/02/26 11:28:19;;;;;;;1.00;0.70;;;13.80;57.70;;;;;;4997876;28;20957;-70
2023/02/26 11:30:47;;;;;;;1.00;0.70;;;12.60;55.30;;;;;;5000666;28;20477;-69
2023/02/26 11:33:21;;;;;;;1.63;0.93;;;11.70;57.10;;;;;;4997306;28;20532;-69
2023/02/26 11:35:49;;;;;;;2.23;0.83;;;10.70;59.30;;;;;;4998410;28;20462;-69
2023/02/26 11:38:21;;;;;;;3.10;0.73;;;9.80;64.10;;;;;;4997678;28;20460;-70
2023/02/26 11:40:52;;;;;;;4.33;1.00;;;10.60;62.60;;;;;;5005333;28;20453;-71
2023/02/26 11:43:21;;;;;;;1.80;1.07;;;11.60;60.60;;;;;;5001310;28;20462;-71
2023/02/26 11:45:52;;;;;;;2.33;0.80;;;12.10;60.70;;;;;;5005580;28;20457;-71
2023/02/26 11:48:24;;;;;;;1.00;0.70;;;12.30;62.70;;;;;;4995558;28;22276;-71
2023/02/26 11:50:56;;;;;;;1.30;0.90;;;12.80;58.50;;;;;;4998402;28;20896;-70
2023/02/26 11:53:29;;;;;;;1.43;0.87;;;12.10;58.70;;;;;;5005829;28;20462;-71
2023/02/26 11:56:02;;;;;;;1.10;0.70;;;13.10;58.20;;;;;;5003277;28;21064;-70
2023/02/26 11:58:34;;;;;;;1.10;0.80;;;12.70;56.30;;;;;;4996755;28;20485;-70
2023/02/26 12:01:02;;;;;;;1.87;0.93;;;13.00;57.90;;;;;;4997138;28;21152;-70
2023/02/26 12:03:34;;;;;;;1.10;0.80;;;13.10;54.10;;;;;;5001077;28;20469;-71
2023/02/26 12:06:04;;;;;;;1.30;0.97;;;12.30;54.60;;;;;;5003950;28;20479;-71
2023/02/26 12:08:37;;;;;;;1.10;0.87;;;12.40;56.10;;;;;;4995359;28;20453;-71
2023/02/26 12:11:43;;;;;;;1.97;1.30;;;12.30;58.10;;;;;;5000329;28;20549;-70
2023/02/26 12:14:27;;;;;;;1.10;0.90;;;12.20;58.30;;;;;;4970253;28;20548;-71
2023/02/26 12:17:04;;;;;;;1.60;0.87;;;13.20;55.40;;;;;;5003204;28;20485;-71
2023/02/26 12:19:43;;;;;;;1.80;0.80;;;12.40;54.40;;;;;;5000531;28;20931;-70
2023/02/26 12:22:26;;;;;;;1.40;1.00;;;12.20;55.30;;;;;;4989421;28;20467;-71
2023/02/26 12:25:21;;;;;;;1.33;1.23;;;12.60;56.50;;;;;;5004882;28;20519;-71
2023/02/26 12:28:07;;;;;;;1.40;1.00;;;12.70;56.50;;;;;;5003119;28;20498;-71
2023/02/26 12:30:56;;;;;;;1.83;1.10;;;12.10;58.10;;;;;;5009808;28;20456;-70
2023/02/26 12:33:34;;;;;;;1.60;0.80;;;12.50;54.60;;;;;;5011209;28;20481;-70
2023/02/26 12:36:16;;;;;;;1.17;0.90;;;11.40;54.80;;;;;;5010145;28;20480;-71
2023/02/26 12:38:52;;;;;;;1.00;0.70;;;10.50;55.30;;;;;;5007002;28;20456;-71
2023/02/26 12:41:53;;;;;;;2.33;0.87;;;10.20;56.00;;;;;;5000613;28;20477;-71
2023/02/26 12:44:38;;;;;;;1.10;0.97;;;10.30;56.80;;;;;;4996717;28;20534;-70
2023/02/26 12:47:26;;;;;;;1.47;0.80;;;11.10;57.60;;;;;;5004464;28;20499;-70
2023/02/26 12:50:19;;;;;;;1.37;1.07;;;12.10;57.70;;;;;;5010106;28;20548;-70
2023/02/26 12:53:10;;;;;;;1.10;0.77;;;13.00;55.50;;;;;;5008871;28;20512;-70
2023/02/26 12:55:46;;;;;;;1.20;0.80;;;13.00;53.70;;;;;;5012028;28;20458;-71
2023/02/26 12:58:33;;;;;;;1.10;0.80;;;13.20;54.10;;;;;;5011126;28;20976;-71
2023/02/26 13:01:11;;;;;;;1.10;0.90;;;12.20;53.30;;;;;;5003483;28;20596;-71
2023/02/26 13:04:23;;;;;;;1.20;0.80;;;13.30;56.00;;;;;;5006481;28;20960;-71
2023/02/26 13:07:10;;;;;;;1.90;1.47;;;13.20;52.70;;;;;;4927010;29;20513;-69
2023/02/26 13:09:54;;;;;;;1.30;1.03;;;13.70;54.10;;;;;;5001769;28;20464;-71
2023/02/26 13:12:36;;;;;;;1.30;0.90;;;14.10;53.80;;;;;;5000657;28;20489;-71